Time;durP1;ratioP1;P1;durP2;ratioP2;P2;SDS_P1;SDS_P2;PMS_P1;PMS_P2;Temp;Humidity;BMP_temperature;BMP_pressure;BME280_temperature;BME280_humidity;BME280_pressure;Samples;Min_cycle;Max_cycle;Signal;HPM_P1;HPM_P2
2021/05/01 00:00:22;;;;;;;45.70;40.37;;;;;;;6.26;100.00;95637.63;1036412;28;20033;-54
2021/05/01 00:00:52;;;;;;;45.80;39.80;;;;;;;6.26;100.00;95635.81;1040342;28;20476;-56
2021/05/01 00:01:23;;;;;;;45.60;40.00;;;;;;;6.31;100.00;95625.63;1036342;28;20014;-53
2021/05/01 00:01:53;;;;;;;49.17;40.13;;;;;;;6.35;100.00;95631.31;1040234;28;20062;-55
2021/05/01 00:02:24;;;;;;;42.47;37.60;;;;;;;6.27;100.00;95626.16;1036090;28;20368;-53
2021/05/01 00:02:54;;;;;;;46.30;39.83;;;;;;;6.31;100.00;95627.44;1036414;28;20101;-51
2021/05/01 00:03:25;;;;;;;46.13;38.83;;;;;;;6.37;100.00;95629.31;1040019;28;20040;-53
2021/05/01 00:03:55;;;;;;;43.67;38.40;;;;;;;6.37;100.00;95624.91;1036398;28;20427;-53
2021/05/01 00:04:26;;;;;;;45.83;39.73;;;;;;;6.22;100.00;95630.16;1040188;28;20017;-56
2021/05/01 00:04:56;;;;;;;55.07;42.43;;;;;;;6.18;100.00;95626.25;1040158;28;20044;-53
2021/05/01 00:05:27;;;;;;;47.03;40.67;;;;;;;6.21;100.00;95614.63;1040143;28;20448;-52
2021/05/01 00:05:57;;;;;;;47.90;39.80;;;;;;;6.31;100.00;95614.34;1040342;28;20056;-53
2021/05/01 00:06:28;;;;;;;45.00;40.20;;;;;;;6.30;100.00;95618.78;1040466;28;20021;-54
2021/05/01 00:06:58;;;;;;;46.73;40.63;;;;;;;6.27;100.00;95619.16;1040596;28;20108;-53
2021/05/01 00:07:29;;;;;;;44.87;39.90;;;;;;;6.29;100.00;95614.53;1040619;28;20059;-55
2021/05/01 00:07:59;;;;;;;50.33;40.80;;;;;;;6.31;100.00;95622.19;1040508;28;20056;-55
2021/05/01 00:08:30;;;;;;;48.90;41.93;;;;;;;6.28;100.00;95615.53;1040581;28;20056;-52
2021/05/01 00:09:00;;;;;;;44.03;39.23;;;;;;;6.28;100.00;95612.91;1040642;28;20040;-53
2021/05/01 00:09:31;;;;;;;42.37;37.70;;;;;;;6.19;100.00;95616.59;1040447;28;20113;-54
2021/05/01 00:10:02;;;;;;;48.33;41.07;;;;;;;6.14;100.00;95614.53;1036062;28;20104;-55
2021/05/01 00:10:33;;;;;;;50.00;41.63;;;;;;;6.12;100.00;95615.69;1036222;28;20013;-55
2021/05/01 00:11:04;;;;;;;50.73;41.73;;;;;;;6.19;100.00;95616.59;1036126;28;20014;-53
2021/05/01 00:11:34;;;;;;;45.13;40.40;;;;;;;6.20;100.00;95608.59;1036336;28;20014;-54
2021/05/01 00:12:05;;;;;;;43.73;39.03;;;;;;;6.27;100.00;95613.09;1040470;28;20015;-54
2021/05/01 00:12:37;;;;;;;48.33;40.10;;;;;;;6.26;100.00;95612.28;1040316;28;20114;-54
2021/05/01 00:13:08;;;;;;;48.88;40.63;;;;;;;6.32;100.00;95616.78;1040220;28;20048;-54
2021/05/01 00:13:38;;;;;;;43.80;38.27;;;;;;;6.31;100.00;95612.53;1040164;28;20379;-52
2021/05/01 00:14:09;;;;;;;46.33;40.63;;;;;;;6.29;100.00;95613.75;1040377;28;20097;-56
2021/05/01 00:14:39;;;;;;;48.80;40.53;;;;;;;6.21;100.00;95618.06;1040399;28;20021;-54
2021/05/01 00:15:11;;;;;;;46.80;41.37;;;;;;;6.25;100.00;95613.25;1040532;28;20052;-53
2021/05/01 00:15:41;;;;;;;48.97;42.17;;;;;;;6.26;100.00;95620.13;1040288;28;20116;-55
2021/05/01 00:16:12;;;;;;;47.27;41.90;;;;;;;6.20;100.00;95618.25;1040166;28;20418;-55
2021/05/01 00:16:42;;;;;;;45.77;40.80;;;;;;;6.15;100.00;95610.94;1040158;28;20021;-53
2021/05/01 00:17:13;;;;;;;48.33;40.60;;;;;;;6.07;100.00;95618.03;1040154;28;20048;-52
2021/05/01 00:17:43;;;;;;;44.80;39.50;;;;;;;6.01;100.00;95611.72;1040430;28;20056;-54
2021/05/01 00:18:14;;;;;;;45.17;40.17;;;;;;;6.02;100.00;95611.53;1040652;28;20013;-52
2021/05/01 00:18:44;;;;;;;46.27;41.17;;;;;;;6.09;100.00;95619.50;1040638;28;20083;-56
2021/05/01 00:19:15;;;;;;;46.80;40.17;;;;;;;6.17;100.00;95624.63;1040383;28;20017;-53
2021/05/01 00:19:45;;;;;;;51.17;42.50;;;;;;;6.09;100.00;95618.66;1040489;28;20105;-53
2021/05/01 00:20:15;;;;;;;47.73;40.73;;;;;;;5.98;100.00;95610.31;1040595;28;20013;-53
2021/05/01 00:20:46;;;;;;;49.47;42.47;;;;;;;5.97;100.00;95620.94;1040632;28;20017;-52
2021/05/01 00:21:16;;;;;;;48.50;41.13;;;;;;;5.97;100.00;95613.88;1040565;28;20013;-55
2021/05/01 00:21:47;;;;;;;45.70;39.00;;;;;;;5.96;100.00;95612.22;1040598;28;20045;-52
2021/05/01 00:22:17;;;;;;;48.33;41.30;;;;;;;5.98;100.00;95615.53;1036167;28;20072;-56
2021/05/01 00:22:48;;;;;;;48.77;41.80;;;;;;;6.00;100.00;95624.00;1036390;28;20459;-53
2021/05/01 00:23:18;;;;;;;49.93;42.53;;;;;;;6.09;100.00;95602.97;1028231;28;20026;-56
2021/05/01 00:23:49;;;;;;;48.23;41.77;;;;;;;6.14;100.00;95608.50;1028361;28;20014;-55
2021/05/01 00:24:19;;;;;;;47.53;41.17;;;;;;;6.19;100.00;95609.56;1035991;28;20045;-55
2021/05/01 00:24:50;;;;;;;47.27;42.10;;;;;;;6.25;100.00;95608.03;1032364;28;20021;-54
2021/05/01 00:25:20;;;;;;;50.47;41.00;;;;;;;6.20;100.00;95607.78;1040064;28;20024;-53
2021/05/01 00:25:51;;;;;;;47.90;41.87;;;;;;;6.19;100.00;95606.16;1036266;28;20014;-53
2021/05/01 00:26:21;;;;;;;45.43;40.40;;;;;;;6.27;100.00;95611.31;1036067;28;20498;-53
2021/05/01 00:26:52;;;;;;;47.37;39.67;;;;;;;6.28;100.00;95617.34;1040296;28;20022;-53
2021/05/01 00:27:22;;;;;;;46.07;39.77;;;;;;;6.29;100.00;95609.31;1036364;28;20096;-55
2021/05/01 00:27:53;;;;;;;50.77;43.93;;;;;;;6.33;100.00;95609.75;1040173;28;20558;-53
2021/05/01 00:28:24;;;;;;;50.70;42.75;;;;;;;6.24;100.00;95603.81;1036327;28;20396;-54
2021/05/01 00:28:55;;;;;;;51.07;42.07;;;;;;;6.23;100.00;95604.81;1036410;28;20053;-52
2021/05/01 00:29:25;;;;;;;47.53;42.10;;;;;;;6.23;100.00;95602.19;1040329;28;20063;-55
2021/05/01 00:29:56;;;;;;;56.57;43.83;;;;;;;6.16;100.00;95602.09;1032257;28;20022;-56
2021/05/01 00:30:26;;;;;;;47.37;41.73;;;;;;;6.23;100.00;95602.19;1036484;28;20017;-54
2021/05/01 00:30:57;;;;;;;45.33;40.30;;;;;;;6.19;100.00;95606.94;1032008;28;20104;-56
2021/05/01 00:31:29;;;;;;;43.97;39.10;;;;;;;6.24;100.00;95603.81;1032209;28;20049;-54
2021/05/01 00:31:59;;;;;;;45.45;39.33;;;;;;;6.28;100.00;95609.50;1036064;28;20018;-56
2021/05/01 00:32:30;;;;;;;50.17;42.17;;;;;;;6.30;100.00;95607.50;1036799;28;20057;-54
2021/05/01 00:33:00;;;;;;;43.23;38.60;;;;;;;6.41;100.00;95609.66;1040262;28;20435;-53
2021/05/01 00:33:31;;;;;;;47.77;40.13;;;;;;;6.28;100.00;95605.06;1040211;28;20056;-54
2021/05/01 00:34:02;;;;;;;43.50;38.80;;;;;;;6.30;100.00;95604.88;1040539;28;20040;-52
2021/05/01 00:34:33;;;;;;;46.75;38.30;;;;;;;6.32;100.00;95603.72;1040294;28;20025;-52
2021/05/01 00:35:04;;;;;;;46.37;39.50;;;;;;;6.27;100.00;95608.69;1040428;28;20022;-53
2021/05/01 00:35:35;;;;;;;42.58;38.05;;;;;;;6.35;100.00;95611.19;1040492;28;20121;-52
2021/05/01 00:36:05;;;;;;;44.70;39.50;;;;;;;6.31;100.00;95606.50;1040583;28;20109;-53
2021/05/01 00:36:36;;;;;;;42.73;37.60;;;;;;;6.21;100.00;95602.38;1040553;28;20021;-56
2021/05/01 00:37:06;;;;;;;45.03;40.17;;;;;;;6.28;100.00;95604.25;1040463;28;20030;-55
2021/05/01 00:37:37;;;;;;;43.83;37.40;;;;;;;6.26;100.00;95607.06;1040607;28;20436;-57
2021/05/01 00:38:07;;;;;;;43.30;37.77;;;;;;;6.26;100.00;95611.47;1040571;28;20017;-53
2021/05/01 00:38:38;;;;;;;46.23;41.23;;;;;;;6.29;100.00;95606.69;1040559;28;20021;-53
2021/05/01 00:39:09;;;;;;;45.13;39.10;;;;;;;6.37;100.00;95606.59;1040694;28;20045;-55
2021/05/01 00:39:39;;;;;;;45.83;40.73;;;;;;;6.25;100.00;95602.81;1040575;28;20022;-55
2021/05/01 00:40:10;;;;;;;44.63;39.33;;;;;;;6.30;100.00;95597.03;1040792;28;20539;-54
2021/05/01 00:40:41;;;;;;;44.30;39.42;;;;;;;6.23;100.00;95600.38;1040430;28;20380;-55
2021/05/01 00:41:11;;;;;;;46.63;38.37;;;;;;;6.16;100.00;95598.66;1040832;28;20048;-55
2021/05/01 00:41:45;;;;;;;43.43;38.73;;;;;;;6.21;100.00;95591.13;1040639;28;20021;-53
2021/05/01 00:42:15;;;;;;;44.08;39.25;;;;;;;6.20;100.00;95589.47;1040521;28;20408;-56
2021/05/01 00:42:46;;;;;;;43.93;39.17;;;;;;;6.25;100.00;95594.97;1040398;28;20056;-56
2021/05/01 00:43:17;;;;;;;41.20;36.60;;;;;;;6.23;100.00;95589.13;1040753;28;20021;-53
2021/05/01 00:43:47;;;;;;;43.43;38.23;;;;;;;6.26;100.00;95591.38;1040203;28;20361;-53
2021/05/01 00:44:18;;;;;;;46.80;38.97;;;;;;;6.21;100.00;95586.69;1040063;28;20017;-53
2021/05/01 00:44:48;;;;;;;46.37;39.80;;;;;;;6.21;100.00;95591.13;1040442;28;20027;-55
2021/05/01 00:45:19;;;;;;;43.40;38.67;;;;;;;6.25;100.00;95594.97;1040373;28;20457;-54
2021/05/01 00:45:49;;;;;;;44.07;38.60;;;;;;;6.21;100.00;95597.16;1040799;28;20383;-53
2021/05/01 00:46:20;;;;;;;43.87;39.03;;;;;;;6.26;100.00;95591.38;1040372;28;20439;-54
2021/05/01 00:46:51;;;;;;;44.30;39.13;;;;;;;6.31;100.00;95589.00;1036243;28;20022;-53
2021/05/01 00:47:21;;;;;;;46.10;40.50;;;;;;;6.26;100.00;95595.78;1036338;28;20029;-54
2021/05/01 00:47:52;;;;;;;45.50;39.73;;;;;;;6.28;100.00;95592.00;1032498;28;20018;-53
2021/05/01 00:48:22;;;;;;;46.20;39.97;;;;;;;6.15;100.00;95592.63;1036108;28;20026;-55
2021/05/01 00:48:53;;;;;;;43.07;38.47;;;;;;;6.19;100.00;95595.69;1040064;28;20014;-55
2021/05/01 00:49:23;;;;;;;45.47;40.13;;;;;;;6.07;100.00;95590.09;1040334;28;20017;-53
2021/05/01 00:49:54;;;;;;;48.47;40.23;;;;;;;6.12;100.00;95595.63;1040519;28;20060;-52
2021/05/01 00:50:24;;;;;;;46.40;39.40;;;;;;;6.15;100.00;95591.81;1040374;28;20028;-55
2021/05/01 00:50:54;;;;;;;49.50;39.80;;;;;;;6.13;100.00;95592.00;1036189;28;20018;-54
2021/05/01 00:51:25;;;;;;;46.57;40.17;;;;;;;6.19;100.00;95595.69;1036182;28;20345;-56
2021/05/01 00:51:55;;;;;;;45.07;38.90;;;;;;;6.21;100.00;95594.53;1036293;28;20249;-56
2021/05/01 00:52:26;;;;;;;47.47;40.03;;;;;;;6.11;100.00;95596.59;1036231;28;20052;-53
2021/05/01 00:52:57;;;;;;;48.00;41.23;;;;;;;6.15;100.00;95595.25;1040067;28;20123;-53
2021/05/01 00:53:27;;;;;;;43.70;38.83;;;;;;;6.12;100.00;95594.78;1040350;28;20053;-55
2021/05/01 00:53:58;;;;;;;44.47;39.67;;;;;;;6.08;100.00;95589.13;1040148;28;20068;-54
2021/05/01 00:54:28;;;;;;;49.00;40.90;;;;;;;6.07;100.00;95597.13;1036070;28;20014;-53
2021/05/01 00:54:59;;;;;;;47.53;41.77;;;;;;;6.02;100.00;95592.44;1040034;28;20040;-56
2021/05/01 00:55:31;;;;;;;52.63;41.77;;;;;;;6.16;100.00;95602.09;1040180;28;20088;-52
2021/05/01 00:56:01;;;;;;;50.78;42.00;;;;;;;6.17;100.00;95595.88;1036030;28;20191;-53
2021/05/01 00:56:31;;;;;;;44.97;37.77;;;;;;;6.20;100.00;95600.75;1036323;28;20088;-53
2021/05/01 00:57:02;;;;;;;44.00;38.77;;;;;;;6.27;100.00;95600.84;1036022;28;20102;-52
2021/05/01 00:57:33;;;;;;;44.23;39.40;;;;;;;6.22;100.00;95595.31;1035984;28;20026;-53
2021/05/01 00:58:03;;;;;;;46.43;40.60;;;;;;;6.14;100.00;95595.44;1040429;28;20037;-55
2021/05/01 00:58:34;;;;;;;47.50;41.10;;;;;;;6.09;100.00;95601.19;1040243;28;20438;-53
2021/05/01 00:59:04;;;;;;;49.43;41.57;;;;;;;6.08;100.00;95606.59;1040337;28;20029;-52
2021/05/01 00:59:35;;;;;;;48.13;39.77;;;;;;;6.08;100.00;95610.03;1040662;28;20045;-55
2021/05/01 01:00:12;;;;;;;46.13;40.93;;;;;;;6.17;100.00;95608.16;1040841;28;20124;-55
2021/05/01 01:01:17;;;;;;;49.53;42.33;;;;;;;6.17;100.00;95598.50;1036930;28;20038;-52
2021/05/01 01:01:50;;;;;;;50.25;41.38;;;;;;;6.26;100.00;95598.41;1036669;28;20022;-53
2021/05/01 01:02:22;;;;;;;50.92;42.65;;;;;;;6.25;100.00;95600.19;1038612;28;20057;-57
2021/05/01 01:02:53;;;;;;;49.88;41.45;;;;;;;6.29;100.00;95598.06;1040830;28;20021;-53
2021/05/01 01:03:24;;;;;;;49.72;42.28;;;;;;;6.29;100.00;95598.06;1041470;28;20025;-56
2021/05/01 01:03:54;;;;;;;49.93;42.40;;;;;;;6.31;100.00;95596.06;1040935;28;20021;-54
2021/05/01 01:04:25;;;;;;;50.17;42.30;;;;;;;6.33;100.00;95588.84;1040998;28;20029;-56
2021/05/01 01:04:55;;;;;;;48.27;41.70;;;;;;;6.37;100.00;95600.56;1041128;28;20028;-54
2021/05/01 01:05:26;;;;;;;47.50;39.87;;;;;;;6.34;100.00;95598.31;1040943;28;20021;-54
2021/05/01 01:05:56;;;;;;;45.80;40.07;;;;;;;6.28;100.00;95594.59;1041030;28;20032;-56
2021/05/01 01:06:27;;;;;;;48.30;40.00;;;;;;;6.23;100.00;95595.16;1040741;28;20013;-55
2021/05/01 01:06:57;;;;;;;46.90;40.97;;;;;;;6.19;100.00;95593.88;1036973;28;20172;-52
2021/05/01 01:07:28;;;;;;;48.30;40.17;;;;;;;6.29;100.00;95595.44;1036870;28;20416;-56
2021/05/01 01:07:58;;;;;;;46.30;39.70;;;;;;;6.35;100.00;95592.09;1037138;28;20014;-55
2021/05/01 01:08:29;;;;;;;44.87;39.87;;;;;;;6.36;100.00;95591.09;1037349;28;20060;-54
2021/05/01 01:08:59;;;;;;;48.63;40.00;;;;;;;6.33;100.00;95591.44;1041245;28;20009;-56
2021/05/01 01:09:29;;;;;;;45.80;38.90;;;;;;;6.28;100.00;95599.84;1041457;28;20013;-54
2021/05/01 01:10:00;;;;;;;48.23;41.73;;;;;;;6.22;100.00;95582.25;1041654;28;20013;-52
2021/05/01 01:10:30;;;;;;;45.17;39.47;;;;;;;6.29;100.00;95584.97;1041132;28;20463;-55
2021/05/01 01:11:01;;;;;;;47.13;40.63;;;;;;;6.33;100.00;95579.19;1041524;28;20033;-56
2021/05/01 01:11:31;;;;;;;46.47;39.17;;;;;;;6.37;100.00;95582.25;1041242;28;20060;-54
2021/05/01 01:12:02;;;;;;;47.40;41.77;;;;;;;6.39;100.00;95583.72;1041470;28;20120;-54
2021/05/01 01:12:32;;;;;;;45.40;38.67;;;;;;;6.46;100.00;95581.16;1041412;28;20025;-54
2021/05/01 01:13:03;;;;;;;46.00;39.33;;;;;;;6.38;100.00;95579.47;1040907;28;20075;-52
2021/05/01 01:13:33;;;;;;;44.03;39.23;;;;;;;6.33;100.00;95575.75;1040920;28;20100;-55
2021/05/01 01:14:05;;;;;;;48.33;40.10;;;;;;;6.41;100.00;95583.53;1040791;28;20029;-53
2021/05/01 01:14:36;;;;;;;45.03;39.85;;;;;;;6.44;100.00;95575.31;1040825;28;20017;-56
2021/05/01 01:15:07;;;;;;;47.07;41.40;;;;;;;6.47;100.00;95576.72;1041496;28;20104;-53
2021/05/01 01:15:37;;;;;;;48.13;40.45;;;;;;;6.52;100.00;95574.41;1040776;28;20079;-55
2021/05/01 01:16:08;;;;;;;45.37;39.33;;;;;;;6.46;100.00;95572.50;1041102;28;20076;-56
2021/05/01 01:16:39;;;;;;;44.43;39.43;;;;;;;6.41;100.00;95567.84;1040854;28;20510;-53
2021/05/01 01:17:10;;;;;;;45.03;38.85;;;;;;;6.36;100.00;95565.75;1040822;28;20537;-53
2021/05/01 01:17:41;;;;;;;45.40;39.03;;;;;;;6.27;100.00;95568.66;1040972;28;20036;-56
2021/05/01 01:18:11;;;;;;;46.67;39.80;;;;;;;6.15;100.00;95563.06;1041086;28;20021;-53
2021/05/01 01:18:42;;;;;;;45.60;38.93;;;;;;;6.13;100.00;95570.28;1041331;28;20040;-52
2021/05/01 01:19:13;;;;;;;47.03;39.33;;;;;;;6.15;100.00;95563.06;1041231;28;20032;-54
2021/05/01 01:19:43;;;;;;;44.30;39.47;;;;;;;6.19;100.00;95567.75;1041188;28;20100;-50
2021/05/01 01:20:14;;;;;;;41.30;36.90;;;;;;;6.21;100.00;95568.38;1041252;28;20021;-52
2021/05/01 01:20:44;;;;;;;43.73;38.27;;;;;;;6.25;100.00;95574.06;1040980;28;20025;-57
2021/05/01 01:21:15;;;;;;;44.87;39.80;;;;;;;6.27;100.00;95572.09;1036649;28;20100;-56
2021/05/01 01:21:46;;;;;;;45.43;39.23;;;;;;;6.17;100.00;95568.94;1036832;28;20495;-52
2021/05/01 01:22:17;;;;;;;44.53;38.72;;;;;;;6.15;100.00;95568.28;1036822;28;20104;-55
2021/05/01 01:22:47;;;;;;;44.03;39.00;;;;;;;6.09;100.00;95569.84;1040891;28;20052;-53
2021/05/01 01:23:18;;;;;;;47.60;41.40;;;;;;;6.14;100.00;95572.72;1040952;28;20030;-52
2021/05/01 01:23:49;;;;;;;44.07;39.17;;;;;;;6.21;100.00;95572.81;1041201;28;20021;-52
2021/05/01 01:24:19;;;;;;;48.07;40.90;;;;;;;6.08;100.00;95572.63;1041057;28;20702;-53
2021/05/01 01:24:50;;;;;;;45.73;38.90;;;;;;;6.04;100.00;95573.00;1040958;28;20017;-56
2021/05/01 01:25:21;;;;;;;44.07;36.97;;;;;;;5.97;100.00;95581.72;1040653;28;20113;-53
2021/05/01 01:25:51;;;;;;;40.07;35.67;;;;;;;5.98;100.00;95580.72;1036687;28;20022;-51
2021/05/01 01:26:22;;;;;;;42.90;38.20;;;;;;;6.01;100.00;95582.97;1036697;28;20017;-52
2021/05/01 01:26:52;;;;;;;45.33;38.27;;;;;;;6.02;100.00;95585.41;1033018;28;20023;-52
2021/05/01 01:27:23;;;;;;;42.40;37.80;;;;;;;6.10;100.00;95591.53;1036843;28;20050;-53
2021/05/01 01:27:53;;;;;;;47.30;40.10;;;;;;;6.04;100.00;95588.66;1036538;28;20149;-55
2021/05/01 01:28:24;;;;;;;46.80;40.63;;;;;;;6.05;100.00;95592.88;1036919;28;20026;-56
2021/05/01 01:28:55;;;;;;;48.72;40.15;;;;;;;5.99;100.00;95598.03;1032712;28;20029;-54
2021/05/01 01:29:25;;;;;;;44.87;39.63;;;;;;;6.02;100.00;95587.22;1032872;28;20416;-54
2021/05/01 01:29:56;;;;;;;45.63;39.83;;;;;;;6.01;100.00;95590.81;1032876;28;20025;-56
2021/05/01 01:30:31;;;;;;;45.77;40.63;;;;;;;6.08;100.00;95596.16;1032985;28;20604;-52
2021/05/01 01:31:01;;;;;;;48.28;41.42;;;;;;;6.10;100.00;95584.50;1040999;28;20473;-55
2021/05/01 01:31:32;;;;;;;51.20;41.80;;;;;;;6.11;100.00;95585.34;1040804;28;20025;-52
2021/05/01 01:32:03;;;;;;;51.47;41.13;;;;;;;6.17;100.00;95582.00;1040986;28;20021;-54
2021/05/01 01:32:33;;;;;;;46.80;40.67;;;;;;;6.20;100.00;95579.03;1040994;28;20067;-54
2021/05/01 01:33:08;;;;;;;50.50;42.33;;;;;;;6.25;100.00;95574.06;1036607;28;20018;-53
2021/05/01 01:33:38;;;;;;;49.85;41.20;;;;;;;6.29;100.00;95567.47;1036663;28;20022;-55
2021/05/01 01:34:09;;;;;;;44.33;39.47;;;;;;;6.34;100.00;95569.53;1036484;28;20472;-52
2021/05/01 01:34:43;;;;;;;47.53;42.10;;;;;;;6.32;100.00;95572.34;1037461;28;20380;-53
2021/05/01 01:35:14;;;;;;;49.67;41.80;;;;;;;6.39;100.00;95573.25;1036821;28;20061;-53
2021/05/01 01:35:44;;;;;;;52.53;42.00;;;;;;;6.44;100.00;95566.63;1036731;28;20461;-53
2021/05/01 01:36:15;;;;;;;49.33;40.83;;;;;;;6.46;100.00;95567.28;1036598;28;20076;-54
2021/05/01 01:36:45;;;;;;;53.73;42.60;;;;;;;6.46;100.00;95569.91;1036975;28;20444;-52
2021/05/01 01:37:16;;;;;;;52.93;42.97;;;;;;;6.44;100.00;95564.03;1044783;28;20024;-53
2021/05/01 01:37:46;;;;;;;46.73;40.17;;;;;;;6.41;100.00;95570.44;1040978;28;20079;-53
2021/05/01 01:38:17;;;;;;;43.70;38.17;;;;;;;6.42;100.00;95574.66;1041025;28;20021;-52
2021/05/01 01:38:47;;;;;;;45.97;40.57;;;;;;;6.48;100.00;95567.91;1040900;28;20447;-55
2021/05/01 01:39:20;;;;;;;47.20;39.77;;;;;;;6.40;100.00;95564.38;1040875;28;20021;-54
2021/05/01 01:39:50;;;;;;;46.40;40.35;;;;;;;6.36;100.00;95571.00;1041050;28;20460;-54
2021/05/01 01:40:21;;;;;;;43.97;39.17;;;;;;;6.41;100.00;95570.44;1040594;28;20109;-53
2021/05/01 01:40:52;;;;;;;49.00;40.87;;;;;;;6.40;100.00;95577.47;1040747;28;20072;-54
2021/05/01 01:41:22;;;;;;;43.40;38.70;;;;;;;6.41;100.00;95575.69;1036677;28;20288;-52
2021/05/01 01:41:53;;;;;;;47.17;39.97;;;;;;;6.44;100.00;95571.88;1032917;28;20018;-53
2021/05/01 01:42:23;;;;;;;43.37;38.57;;;;;;;6.42;100.00;95574.66;1036579;28;20057;-54
2021/05/01 01:42:54;;;;;;;51.83;40.70;;;;;;;6.42;100.00;95568.63;1036764;28;20022;-58
2021/05/01 01:43:27;;;;;;;45.37;38.90;;;;;;;6.45;100.00;95563.84;1040580;28;20125;-52
2021/05/01 01:43:57;;;;;;;44.70;39.58;;;;;;;6.47;100.00;95566.28;1041078;28;20528;-52
2021/05/01 01:44:28;;;;;;;48.63;40.80;;;;;;;6.51;100.00;95567.53;1040781;28;20021;-53
2021/05/01 01:44:58;;;;;;;45.37;38.70;;;;;;;6.46;100.00;95564.66;1040913;28;20029;-55
2021/05/01 01:45:29;;;;;;;46.97;40.17;;;;;;;6.31;100.00;95570.72;1040576;28;20554;-57
2021/05/01 01:46:00;;;;;;;45.47;38.93;;;;;;;6.32;100.00;95563.69;1040550;28;20052;-55
2021/05/01 01:46:33;;;;;;;43.20;37.78;;;;;;;6.34;100.00;95569.53;1040852;28;20440;-53
2021/05/01 01:47:03;;;;;;;48.35;40.33;;;;;;;6.24;100.00;95577.69;1037028;28;20391;-57
2021/05/01 01:47:34;;;;;;;48.40;40.93;;;;;;;6.31;100.00;95575.13;1040873;28;20029;-56
2021/05/01 01:48:04;;;;;;;46.07;39.10;;;;;;;6.40;100.00;95582.69;1040584;28;20375;-56
2021/05/01 01:48:35;;;;;;;42.67;36.37;;;;;;;6.42;100.00;95577.28;1040787;28;20472;-56
2021/05/01 01:49:05;;;;;;;42.70;37.80;;;;;;;6.36;100.00;95580.63;1040957;28;20076;-55
2021/05/01 01:49:39;;;;;;;45.90;38.73;;;;;;;6.26;100.00;95582.72;1040836;28;20021;-54
2021/05/01 01:50:12;;;;;;;43.88;37.50;;;;;;;6.21;100.00;95581.47;1041153;28;20468;-56
2021/05/01 01:50:42;;;;;;;42.35;37.60;;;;;;;6.17;100.00;95576.78;1041041;28;20029;-53
2021/05/01 01:51:12;;;;;;;44.63;37.83;;;;;;;6.19;100.00;95586.03;1041126;28;20033;-53
2021/05/01 01:51:43;;;;;;;44.00;38.40;;;;;;;6.15;100.00;95586.56;1040784;28;20491;-52
2021/05/01 01:52:13;;;;;;;44.00;37.50;;;;;;;6.10;100.00;95588.94;1040656;28;20079;-55
2021/05/01 01:52:44;;;;;;;41.07;35.13;;;;;;;6.10;100.00;95589.72;1041104;28;20072;-52
2021/05/01 01:53:14;;;;;;;43.97;37.73;;;;;;;6.14;100.00;95590.22;1040929;28;20038;-52
2021/05/01 01:53:45;;;;;;;43.83;37.53;;;;;;;6.20;100.00;95587.66;1040592;28;20030;-54
2021/05/01 01:54:15;;;;;;;42.80;38.10;;;;;;;6.19;100.00;95593.88;1040786;28;20032;-53
2021/05/01 01:54:46;;;;;;;46.27;38.70;;;;;;;6.23;100.00;95599.56;1036555;28;20026;-52
2021/05/01 01:55:18;;;;;;;44.00;38.30;;;;;;;6.30;100.00;95597.88;1036691;28;20038;-54
2021/05/01 01:55:48;;;;;;;43.30;37.65;;;;;;;6.30;100.00;95600.47;1040605;28;20087;-53
2021/05/01 01:56:19;;;;;;;42.33;36.30;;;;;;;6.32;100.00;95597.69;1040399;28;20078;-54
2021/05/01 01:56:49;;;;;;;43.40;36.70;;;;;;;6.34;100.00;95600.91;1040561;28;20440;-53
2021/05/01 01:57:20;;;;;;;40.93;35.63;;;;;;;6.30;100.00;95605.72;1040693;28;20190;-54
2021/05/01 01:57:50;;;;;;;44.17;36.73;;;;;;;6.15;100.00;95600.47;1040672;28;20014;-54
2021/05/01 01:58:21;;;;;;;41.87;35.77;;;;;;;6.23;100.00;95602.19;1040645;28;20036;-56
2021/05/01 01:58:51;;;;;;;40.77;35.90;;;;;;;6.18;100.00;95599.28;1041048;28;20438;-52
2021/05/01 01:59:21;;;;;;;42.60;37.00;;;;;;;6.24;100.00;95603.81;1040825;28;20040;-56
2021/05/01 01:59:52;;;;;;;40.27;35.07;;;;;;;6.29;100.00;95604.09;1040889;28;20009;-52
2021/05/01 02:00:24;;;;;;;39.63;35.13;;;;;;;6.26;100.00;95609.66;1041154;28;20017;-55
2021/05/01 02:00:55;;;;;;;42.72;36.20;;;;;;;6.19;100.00;95601.72;1040990;28;20487;-55
2021/05/01 02:01:26;;;;;;;40.30;34.97;;;;;;;6.16;100.00;95607.31;1040511;28;20021;-51
2021/05/01 02:01:57;;;;;;;45.27;36.97;;;;;;;6.04;100.00;95608.75;1040814;28;20363;-53
2021/05/01 02:02:27;;;;;;;40.45;35.80;;;;;;;5.97;100.00;95608.66;1036810;28;20057;-55
2021/05/01 02:02:58;;;;;;;41.10;36.40;;;;;;;5.91;100.00;95606.75;1036801;28;20022;-56
2021/05/01 02:03:28;;;;;;;39.43;35.23;;;;;;;5.92;100.00;95605.75;1040397;28;20022;-53
2021/05/01 02:03:59;;;;;;;42.07;36.73;;;;;;;5.85;100.00;95610.88;1040499;28;20009;-55
2021/05/01 02:04:30;;;;;;;42.23;36.77;;;;;;;5.76;100.00;95606.72;1040832;28;20416;-54
2021/05/01 02:05:01;;;;;;;40.45;35.22;;;;;;;5.80;100.00;95605.38;1040766;28;20057;-55
2021/05/01 02:05:31;;;;;;;39.53;35.30;;;;;;;5.92;100.00;95610.97;1036449;28;20446;-53
2021/05/01 02:06:02;;;;;;;38.47;34.37;;;;;;;6.00;100.00;95607.50;1036606;28;20010;-57
2021/05/01 02:06:32;;;;;;;38.70;34.50;;;;;;;6.02;100.00;95606.31;1036653;28;20113;-52
2021/05/01 02:07:03;;;;;;;36.50;32.27;;;;;;;6.08;100.00;95609.22;1040667;28;20021;-55
2021/05/01 02:07:33;;;;;;;37.10;33.10;;;;;;;6.15;100.00;95607.50;1040714;28;20081;-54
2021/05/01 02:08:04;;;;;;;40.77;35.87;;;;;;;6.17;100.00;95603.72;1040828;28;20361;-55
2021/05/01 02:08:35;;;;;;;38.03;33.97;;;;;;;6.16;100.00;95601.28;1040726;28;20018;-56
2021/05/01 02:09:06;;;;;;;39.17;34.60;;;;;;;6.16;100.00;95596.06;1041112;28;20440;-53
2021/05/01 02:09:36;;;;;;;41.27;35.20;;;;;;;6.16;100.00;95599.47;1041074;28;20025;-53
2021/05/01 02:10:07;;;;;;;43.77;37.23;;;;;;;6.18;100.00;95597.50;1040837;28;20328;-52
2021/05/01 02:10:38;;;;;;;45.35;36.80;;;;;;;6.24;100.00;95601.22;1036319;28;20024;-55
2021/05/01 02:11:09;;;;;;;41.23;35.97;;;;;;;6.20;100.00;95598.13;1036466;28;20372;-53
2021/05/01 02:11:39;;;;;;;42.97;36.60;;;;;;;6.24;100.00;95593.38;1036368;28;20014;-54
2021/05/01 02:12:11;;;;;;;41.27;36.67;;;;;;;6.29;100.00;95593.63;1036870;28;20013;-54
2021/05/01 02:12:42;;;;;;;43.83;38.03;;;;;;;6.32;100.00;95593.25;1036376;28;20018;-55
2021/05/01 02:13:13;;;;;;;45.42;37.97;;;;;;;6.38;100.00;95595.16;1037191;28;20031;-56
2021/05/01 02:13:43;;;;;;;46.00;38.20;;;;;;;6.39;100.00;95593.34;1040372;28;20067;-53
2021/05/01 02:14:14;;;;;;;41.60;37.10;;;;;;;6.32;100.00;95593.25;1040326;28;20104;-52
2021/05/01 02:14:44;;;;;;;46.03;39.00;;;;;;;6.28;100.00;95584.16;1040860;28;20026;-53
2021/05/01 02:15:19;;;;;;;47.70;40.27;;;;;;;6.37;100.00;95592.72;1040975;28;20495;-56
2021/05/01 02:15:50;;;;;;;46.75;38.38;;;;;;;6.33;100.00;95600.13;1040662;28;20192;-53
2021/05/01 02:16:20;;;;;;;46.80;39.40;;;;;;;6.34;100.00;95593.06;1040619;28;20503;-54
2021/05/01 02:16:51;;;;;;;47.33;38.30;;;;;;;6.39;100.00;95598.56;1040759;28;20021;-54
2021/05/01 02:17:21;;;;;;;44.90;38.43;;;;;;;6.40;100.00;95587.13;1040900;28;20079;-56
2021/05/01 02:17:55;;;;;;;45.60;38.87;;;;;;;6.28;100.00;95596.41;1040525;28;20052;-53
2021/05/01 02:18:25;;;;;;;44.05;37.63;;;;;;;6.26;100.00;95595.78;1040441;28;20076;-54
2021/05/01 02:18:56;;;;;;;45.20;38.70;;;;;;;6.26;100.00;95599.22;1040683;28;20091;-55
2021/05/01 02:19:27;;;;;;;42.67;38.10;;;;;;;6.28;100.00;95605.06;1040868;28;20105;-54
2021/05/01 02:19:57;;;;;;;43.40;36.77;;;;;;;6.28;100.00;95602.44;1040907;28;20013;-53
2021/05/01 02:20:30;;;;;;;44.80;38.60;;;;;;;6.22;100.00;95600.56;1040919;28;20013;-55
2021/05/01 02:21:00;;;;;;;44.33;37.60;;;;;;;6.21;100.00;95604.97;1041060;28;20033;-57
2021/05/01 02:21:31;;;;;;;41.23;36.73;;;;;;;6.26;100.00;95603.66;1040853;28;20026;-58
2021/05/01 02:22:01;;;;;;;45.50;39.97;;;;;;;6.10;100.00;95613.25;1040369;28;20092;-57